Terminal Aerodrome Forecast
Issued by NWS

Home | Current Version | Previous Version | Text Only | Print | Product List | Glossary On
Versions: 1 2 3 4 5 6 7 8 9 10 11 12 13 14
000
FTUS43 KIND 272100 AAB
TAFBMG
TAF AMD
KBMG 272115Z 2721/2818 24009KT 3SM -RA BR OVC004
     FM280000 27009KT 6SM -SHRA BR OVC010
     FM280800 32008KT P6SM OVC015
     FM281400 33007KT P6SM SCT025 BKN180=

USA.gov is the U.S. government's official web portal to all federal, state and local government web resources and services.